Montana Mines, West Virginia
Current Conditions -  °F | °C
As of 6:53 AM on Monday 26 Jan 2015 (Local Time) from KMGW Reporting Station
Overcast Overcast  
Wind Chill: 31°   Ceiling: 2100
Heat Index: 36°   Visibility: 10mi
Dew Point: 31°   Wind: 6mph
Humidity: 82%   Direction: NA
Pressure: 29.65"   Gusts: NA
Location:  39.54°N, 80.12°W
Report Text: KMGW 261153Z AUTO VRB05KT 10SM OVC021 02/M01 A2965 RMK AO2 UPE1055B37E51 SLP048 P0000 60009 70012 T00221006 10022 20011 55006 TSNO
Loading
Personal Weather Stations






























Interactive Weather Map New forecast layout! Learn more

10-Day Weather Forecast

Advertisements
Track Severe Weather on mobile